Terminal Aerodrome Forecast
Issued by NWS Atlanta, GA

Home | Current Version | Previous Version | Text Only | Print | Product List | Glossary On
Versions: 1 2 3 4 5 6 7 8 9 10 11 12 13 14 15 16 17 18 19 20 21 22 23 24 25 26 27 28 29 30 31 32
179
FTAK31 PAJN 231905 CCA
TAFAHN
TAF COR
PAHN 231905Z 2318/2418 29008KT P6SM VCSH OVC035
      TEMPO 2319/2322 VRB06KT -SHRA OVC015
     FM232200 31012KT P6SM -RA SCT015 OVC035
     FM240000 31010KT P6SM -RA OVC025
     FM240900 VRB06KT P6SM SKC
      AMD LTD TO CLD VIS AND WIND=

USA.gov is the U.S. government's official web portal to all federal, state and local government web resources and services.